Time;durP1;ratioP1;P1;durP2;ratioP2;P2;SDS_P1;SDS_P2;PMS_P1;PMS_P2;Temp;Humidity;BMP_temperature;BMP_pressure;BME280_temperature;BME280_humidity;BME280_pressure;Samples;Min_cycle;Max_cycle;Signal;HPM_P1;HPM_P2
2022/11/23 00:00:23;;;;;;;;;4.50;1.75;;;;;;;;5060343;28;62667;-80
2022/11/23 00:02:56;;;;;;;;;1.00;1.00;;;;;;;;5060792;28;62077;-80
2022/11/23 00:05:21;;;;;;;;;3.00;1.25;;;;;;;;5061603;28;61860;-81
2022/11/23 00:07:46;;;;;;;;;2.50;1.00;;;;;;;;5061390;28;62380;-80
2022/11/23 00:10:12;;;;;;;;;1.75;1.75;;;;;;;;5060771;28;62097;-81
2022/11/23 00:12:37;;;;;;;;;2.75;1.50;;;;;;;;5061472;28;61795;-80
2022/11/23 00:15:03;;;;;;;;;1.50;0.75;;;;;;;;5060893;28;61675;-80
2022/11/23 00:17:28;;;;;;;;;1.50;1.00;;;;;;;;5060778;28;62889;-80
2022/11/23 00:19:53;;;;;;;;;2.25;2.25;;;;;;;;5060200;28;62067;-81
2022/11/23 00:22:19;;;;;;;;;1.00;1.00;;;;;;;;5061487;28;61783;-81
2022/11/23 00:24:44;;;;;;;;;9.00;2.25;;;;;;;;5061015;28;62004;-80
2022/11/23 00:27:10;;;;;;;;;2.50;2.00;;;;;;;;5061076;28;61801;-80
2022/11/23 00:29:35;;;;;;;;;8.50;3.00;;;;;;;;5060288;28;61914;-81
2022/11/23 00:32:00;;;;;;;;;1.75;1.00;;;;;;;;5060508;28;61879;-81
2022/11/23 00:34:25;;;;;;;;;4.00;1.50;;;;;;;;5061053;28;61924;-81
2022/11/23 00:36:51;;;;;;;;;4.75;2.00;;;;;;;;5061134;28;61909;-80
2022/11/23 00:39:16;;;;;;;;;2.00;2.00;;;;;;;;5060324;28;61710;-80
2022/11/23 00:41:41;;;;;;;;;2.00;1.00;;;;;;;;5063508;28;61600;-80
2022/11/23 00:44:07;;;;;;;;;3.25;1.50;;;;;;;;5064119;28;61798;-81
2022/11/23 00:46:32;;;;;;;;;2.00;0.00;;;;;;;;5064011;28;62405;-81
2022/11/23 00:48:59;;;;;;;;;2.50;2.50;;;;;;;;5063558;28;61773;-81
2022/11/23 00:51:31;;;;;;;;;1.75;1.75;;;;;;;;5063910;28;62086;-79
2022/11/23 00:53:58;;;;;;;;;6.00;1.00;;;;;;;;5064104;28;61888;-80
2022/11/23 00:56:24;;;;;;;;;4.50;1.25;;;;;;;;5064381;28;61816;-81
2022/11/23 00:58:50;;;;;;;;;3.50;1.50;;;;;;;;5063090;28;61941;-80
2022/11/23 01:01:15;;;;;;;;;3.00;2.00;;;;;;;;5063127;28;61651;-82
2022/11/23 01:03:42;;;;;;;;;7.75;2.00;;;;;;;;5064289;28;61877;-80
2022/11/23 01:06:08;;;;;;;;;3.00;1.00;;;;;;;;5064005;28;61811;-81
2022/11/23 01:08:34;;;;;;;;;3.00;1.75;;;;;;;;5063445;28;62824;-81
2022/11/23 01:11:00;;;;;;;;;1.75;1.00;;;;;;;;5063837;28;61913;-81
2022/11/23 01:13:26;;;;;;;;;3.75;2.50;;;;;;;;5063642;28;61869;-81
2022/11/23 01:15:51;;;;;;;;;7.25;2.00;;;;;;;;5063777;28;61724;-80
2022/11/23 01:18:16;;;;;;;;;0.00;0.00;;;;;;;;5062671;28;61769;-81
2022/11/23 01:20:41;;;;;;;;;2.25;1.25;;;;;;;;5063472;28;61937;-80
2022/11/23 01:23:07;;;;;;;;;2.00;2.00;;;;;;;;5063698;28;61697;-81
2022/11/23 01:25:34;;;;;;;;;1.50;1.00;;;;;;;;5063867;28;61710;-81
2022/11/23 01:27:59;;;;;;;;;1.00;1.00;;;;;;;;5062984;28;63515;-80
2022/11/23 01:30:24;;;;;;;;;1.50;1.00;;;;;;;;5063370;28;61888;-81
2022/11/23 01:32:50;;;;;;;;;4.50;1.00;;;;;;;;5063229;28;62038;-80
2022/11/23 01:35:15;;;;;;;;;4.00;1.00;;;;;;;;5063258;28;61742;-83
2022/11/23 01:37:40;;;;;;;;;5.25;1.00;;;;;;;;5063070;28;61766;-80
2022/11/23 01:40:06;;;;;;;;;3.75;1.00;;;;;;;;5063272;28;61852;-81
2022/11/23 01:42:47;;;;;;;;;1.00;1.00;;;;;;;;5063045;28;61759;-82
2022/11/23 01:45:30;;;;;;;;;5.00;1.25;;;;;;;;5063579;28;61902;-80
2022/11/23 01:47:56;;;;;;;;;2.00;1.00;;;;;;;;5062388;28;62192;-81
2022/11/23 01:50:21;;;;;;;;;2.50;1.00;;;;;;;;5062886;28;61803;-81
2022/11/23 01:52:46;;;;;;;;;1.75;1.75;;;;;;;;5062925;28;61735;-80
2022/11/23 01:55:12;;;;;;;;;2.75;2.75;;;;;;;;5063436;28;61777;-81
2022/11/23 01:57:39;;;;;;;;;1.00;1.00;;;;;;;;5062356;28;62737;-81
2022/11/23 02:00:06;;;;;;;;;2.25;0.75;;;;;;;;5062608;28;62068;-81
2022/11/23 02:02:33;;;;;;;;;9.50;3.00;;;;;;;;5062770;28;61743;-81
2022/11/23 02:05:00;;;;;;;;;2.75;1.50;;;;;;;;5063575;28;61978;-81
2022/11/23 02:07:25;;;;;;;;;2.00;0.50;;;;;;;;5062313;28;62850;-81
2022/11/23 02:09:51;;;;;;;;;2.00;2.00;;;;;;;;5062953;28;61895;-81
2022/11/23 02:12:16;;;;;;;;;3.50;2.00;;;;;;;;5063102;28;61753;-81
2022/11/23 02:14:41;;;;;;;;;2.75;2.00;;;;;;;;5062739;28;61775;-80
2022/11/23 02:17:07;;;;;;;;;2.25;2.00;;;;;;;;5062145;28;62002;-81
2022/11/23 02:19:46;;;;;;;;;4.25;2.00;;;;;;;;5062342;28;61902;-80
2022/11/23 02:22:17;;;;;;;;;3.75;1.00;;;;;;;;5063063;28;62182;-80
2022/11/23 02:24:47;;;;;;;;;8.00;0.75;;;;;;;;5062250;28;61879;-80
2022/11/23 02:27:13;;;;;;;;;3.00;1.75;;;;;;;;5062199;28;63114;-81
2022/11/23 02:29:38;;;;;;;;;2.25;2.00;;;;;;;;5062414;28;61751;-80
2022/11/23 02:32:04;;;;;;;;;2.50;2.50;;;;;;;;5062640;28;62037;-80
2022/11/23 02:34:29;;;;;;;;;2.75;1.75;;;;;;;;5062538;28;61674;-80
2022/11/23 02:36:56;;;;;;;;;4.00;3.00;;;;;;;;5061914;28;62441;-80
2022/11/23 02:39:21;;;;;;;;;7.25;3.25;;;;;;;;5062203;28;61870;-81
2022/11/23 02:41:48;;;;;;;;;6.75;2.75;;;;;;;;5062327;28;61730;-81
2022/11/23 02:44:25;;;;;;;;;7.00;3.25;;;;;;;;5062914;28;62099;-81
2022/11/23 02:46:52;;;;;;;;;3.25;3.00;;;;;;;;5061398;28;61809;-80
2022/11/23 02:49:17;;;;;;;;;2.75;2.75;;;;;;;;5062102;28;61793;-81
2022/11/23 02:51:42;;;;;;;;;2.00;2.00;;;;;;;;5062267;28;61820;-81
2022/11/23 02:54:07;;;;;;;;;6.00;3.00;;;;;;;;5062674;28;61916;-81
2022/11/23 02:56:33;;;;;;;;;3.00;1.75;;;;;;;;5061629;28;63173;-81
2022/11/23 02:58:58;;;;;;;;;4.25;3.25;;;;;;;;5061876;28;61789;-80
2022/11/23 03:01:23;;;;;;;;;4.00;3.00;;;;;;;;5043631;28;61937;-81
2022/11/23 03:03:48;;;;;;;;;3.50;3.50;;;;;;;;5061223;28;62320;-80
2022/11/23 03:06:13;;;;;;;;;4.00;3.75;;;;;;;;5061729;28;62045;-82
2022/11/23 03:08:39;;;;;;;;;2.00;2.00;;;;;;;;5061713;28;61754;-80
2022/11/23 03:11:04;;;;;;;;;4.75;3.25;;;;;;;;5062014;28;61861;-80
2022/11/23 03:13:29;;;;;;;;;3.75;2.00;;;;;;;;5062397;28;62111;-81
2022/11/23 03:15:57;;;;;;;;;4.00;3.00;;;;;;;;5060805;28;62795;-80
2022/11/23 03:18:24;;;;;;;;;3.25;3.00;;;;;;;;5062026;28;61694;-81
2022/11/23 03:20:49;;;;;;;;;2.00;2.00;;;;;;;;5061457;28;61809;-80
2022/11/23 03:23:14;;;;;;;;;3.50;3.00;;;;;;;;5061998;28;61798;-80
2022/11/23 03:25:39;;;;;;;;;8.00;4.00;;;;;;;;5061261;28;62784;-80
2022/11/23 03:28:05;;;;;;;;;3.75;2.00;;;;;;;;5061719;28;61784;-82
2022/11/23 03:30:30;;;;;;;;;4.00;2.00;;;;;;;;5061920;28;61919;-81
2022/11/23 03:32:56;;;;;;;;;3.75;1.75;;;;;;;;5061283;28;61850;-80
2022/11/23 03:35:21;;;;;;;;;3.75;2.00;;;;;;;;5061062;28;61741;-81
2022/11/23 03:37:46;;;;;;;;;7.25;6.00;;;;;;;;5061623;28;62190;-81
2022/11/23 03:40:12;;;;;;;;;3.25;2.00;;;;;;;;5061583;28;61833;-81
2022/11/23 03:42:38;;;;;;;;;7.00;2.00;;;;;;;;5062177;28;61941;-81
2022/11/23 03:45:04;;;;;;;;;6.25;3.00;;;;;;;;5060815;28;62903;-81
2022/11/23 03:47:29;;;;;;;;;3.00;3.00;;;;;;;;5061595;28;61923;-80
2022/11/23 03:49:54;;;;;;;;;5.75;1.50;;;;;;;;5061206;28;61803;-80
2022/11/23 03:52:20;;;;;;;;;4.00;2.25;;;;;;;;5061873;28;61705;-81
2022/11/23 03:54:45;;;;;;;;;3.00;3.00;;;;;;;;5060896;28;63178;-80
2022/11/23 03:57:11;;;;;;;;;5.00;3.00;;;;;;;;5061112;28;61738;-80
2022/11/23 03:59:36;;;;;;;;;5.00;3.00;;;;;;;;5061297;28;61742;-81
2022/11/23 04:02:01;;;;;;;;;7.50;2.75;;;;;;;;5060944;28;62239;-81
2022/11/23 04:04:27;;;;;;;;;3.50;2.25;;;;;;;;5060769;28;63078;-81
2022/11/23 04:06:52;;;;;;;;;7.50;2.75;;;;;;;;5043106;28;62324;-80
2022/11/23 04:09:17;;;;;;;;;3.25;3.25;;;;;;;;5061047;28;61684;-82
2022/11/23 04:11:42;;;;;;;;;2.00;2.00;;;;;;;;5061522;28;61904;-82
2022/11/23 04:14:08;;;;;;;;;3.75;3.00;;;;;;;;5060884;28;62895;-80
2022/11/23 04:16:33;;;;;;;;;3.00;3.00;;;;;;;;5064442;28;62011;-81
2022/11/23 04:18:58;;;;;;;;;5.00;3.25;;;;;;;;5064753;28;61868;-80
2022/11/23 04:21:23;;;;;;;;;3.00;3.00;;;;;;;;5065423;28;62170;-81
2022/11/23 04:23:49;;;;;;;;;3.00;3.00;;;;;;;;5064067;28;61897;-81
2022/11/23 04:26:14;;;;;;;;;4.00;2.50;;;;;;;;5046329;28;61782;-81
2022/11/23 04:28:39;;;;;;;;;7.50;2.00;;;;;;;;5064493;28;62465;-80
2022/11/23 04:31:04;;;;;;;;;5.00;3.75;;;;;;;;5064214;28;61805;-81
2022/11/23 04:33:30;;;;;;;;;6.25;4.00;;;;;;;;5063665;28;61923;-80
2022/11/23 04:35:56;;;;;;;;;3.50;1.00;;;;;;;;5064424;28;62574;-81
2022/11/23 04:38:21;;;;;;;;;6.50;4.00;;;;;;;;5064080;28;61798;-81
2022/11/23 04:40:47;;;;;;;;;3.25;2.25;;;;;;;;5064608;28;61884;-80
2022/11/23 04:43:13;;;;;;;;;3.75;2.00;;;;;;;;5063631;28;62057;-80
2022/11/23 04:45:38;;;;;;;;;3.75;3.75;;;;;;;;5064396;28;61971;-80
2022/11/23 04:48:04;;;;;;;;;3.00;3.00;;;;;;;;5063861;28;61871;-80
2022/11/23 04:50:29;;;;;;;;;2.50;2.00;;;;;;;;5063338;28;62104;-81
2022/11/23 04:52:54;;;;;;;;;5.00;2.00;;;;;;;;5063814;28;62590;-81
2022/11/23 04:55:20;;;;;;;;;3.50;2.00;;;;;;;;5064186;28;61936;-82
2022/11/23 04:57:45;;;;;;;;;2.75;2.75;;;;;;;;5064255;28;61710;-81
2022/11/23 05:00:11;;;;;;;;;7.50;3.00;;;;;;;;5064046;28;61786;-81
2022/11/23 05:02:36;;;;;;;;;3.00;1.50;;;;;;;;5062711;28;62847;-81
2022/11/23 05:05:01;;;;;;;;;3.25;2.25;;;;;;;;5063937;28;61802;-81
2022/11/23 05:07:26;;;;;;;;;7.00;3.00;;;;;;;;5063949;28;62225;-81
2022/11/23 05:09:52;;;;;;;;;7.00;6.00;;;;;;;;5064189;28;61841;-81
2022/11/23 05:12:17;;;;;;;;;6.00;2.50;;;;;;;;5063418;28;61901;-81
2022/11/23 05:14:42;;;;;;;;;2.00;2.00;;;;;;;;5063784;28;61982;-81
2022/11/23 05:17:07;;;;;;;;;3.25;3.25;;;;;;;;5063850;28;61777;-81
2022/11/23 05:19:32;;;;;;;;;4.00;3.25;;;;;;;;5063407;28;61620;-81
2022/11/23 05:21:58;;;;;;;;;7.00;4.00;;;;;;;;5063200;28;61771;-81
2022/11/23 05:24:23;;;;;;;;;3.25;2.00;;;;;;;;5045630;28;61959;-82
2022/11/23 05:26:48;;;;;;;;;7.50;4.00;;;;;;;;5062700;28;61857;-80
2022/11/23 05:29:13;;;;;;;;;8.75;4.00;;;;;;;;5063746;28;61727;-80
2022/11/23 05:31:39;;;;;;;;;7.50;6.25;;;;;;;;5062538;28;62684;-81
2022/11/23 05:34:04;;;;;;;;;3.00;3.00;;;;;;;;5063286;28;61703;-81
2022/11/23 05:36:30;;;;;;;;;4.25;3.75;;;;;;;;5063686;28;61993;-81
2022/11/23 05:38:55;;;;;;;;;7.00;5.25;;;;;;;;5063716;28;61801;-81
2022/11/23 05:41:20;;;;;;;;;4.00;3.00;;;;;;;;5062810;28;62713;-82
2022/11/23 05:43:45;;;;;;;;;4.50;2.50;;;;;;;;5063252;28;61750;-81
2022/11/23 05:46:11;;;;;;;;;3.50;2.75;;;;;;;;5063102;28;62584;-82
2022/11/23 05:48:36;;;;;;;;;6.75;4.00;;;;;;;;5062989;28;61926;-81
2022/11/23 05:51:01;;;;;;;;;6.00;3.75;;;;;;;;5062502;28;62243;-81
2022/11/23 05:53:26;;;;;;;;;3.00;3.00;;;;;;;;5063257;28;61900;-80
2022/11/23 05:55:52;;;;;;;;;2.50;2.50;;;;;;;;5062757;28;61737;-81
2022/11/23 05:58:17;;;;;;;;;2.50;2.50;;;;;;;;5063574;28;61827;-81
2022/11/23 06:00:43;;;;;;;;;6.75;3.25;;;;;;;;5061684;28;62769;-81
2022/11/23 06:03:08;;;;;;;;;4.00;3.00;;;;;;;;5062187;28;61929;-82
2022/11/23 06:05:33;;;;;;;;;2.00;2.00;;;;;;;;5063251;28;62014;-81
2022/11/23 06:07:58;;;;;;;;;4.50;2.75;;;;;;;;5063200;28;62199;-82
2022/11/23 06:10:24;;;;;;;;;4.50;4.00;;;;;;;;5062377;28;62058;-83
2022/11/23 06:12:50;;;;;;;;;5.25;3.00;;;;;;;;5062533;28;61677;-83
2022/11/23 06:15:15;;;;;;;;;1.50;1.50;;;;;;;;5064354;28;61689;-82
2022/11/23 06:17:41;;;;;;;;;5.00;3.50;;;;;;;;5063221;28;61735;-82
2022/11/23 06:20:06;;;;;;;;;4.50;3.25;;;;;;;;5061548;28;61791;-81
2022/11/23 06:22:31;;;;;;;;;6.25;2.75;;;;;;;;5062713;28;61951;-83
2022/11/23 06:24:57;;;;;;;;;5.00;3.50;;;;;;;;5062267;28;61759;-83
2022/11/23 06:27:22;;;;;;;;;5.00;5.00;;;;;;;;5062356;28;61885;-81
2022/11/23 06:29:47;;;;;;;;;4.00;2.25;;;;;;;;5062118;28;61930;-81
2022/11/23 06:32:13;;;;;;;;;5.25;3.00;;;;;;;;5061947;28;62139;-82
2022/11/23 06:34:38;;;;;;;;;5.00;1.25;;;;;;;;5062569;28;62088;-82
2022/11/23 06:37:03;;;;;;;;;6.00;3.00;;;;;;;;5062306;28;62191;-82
2022/11/23 06:39:29;;;;;;;;;3.00;2.00;;;;;;;;5060432;28;61826;-83
2022/11/23 06:41:54;;;;;;;;;3.50;2.25;;;;;;;;5061913;28;61970;-81
2022/11/23 06:44:19;;;;;;;;;4.00;3.00;;;;;;;;5061963;28;61841;-82
2022/11/23 06:46:44;;;;;;;;;6.00;3.25;;;;;;;;5045642;28;61945;-81
2022/11/23 06:49:10;;;;;;;;;6.00;2.75;;;;;;;;5063455;28;61869;-82
2022/11/23 06:51:35;;;;;;;;;6.00;6.00;;;;;;;;5063302;28;62099;-83
2022/11/23 06:54:00;;;;;;;;;4.00;4.00;;;;;;;;5062835;28;61748;-80
2022/11/23 06:56:25;;;;;;;;;6.75;4.00;;;;;;;;5048276;28;61915;-79
2022/11/23 06:58:55;;;;;;;;;3.00;3.00;;;;;;;;5040919;28;61883;-80
2022/11/23 07:01:21;;;;;;;;;9.50;4.25;;;;;;;;5041094;28;61980;-80
2022/11/23 07:03:47;;;;;;;;;2.75;2.75;;;;;;;;5041941;28;61696;-79
2022/11/23 07:06:12;;;;;;;;;7.75;5.25;;;;;;;;5041936;28;61667;-79
2022/11/23 07:08:42;;;;;;;;;7.50;4.00;;;;;;;;5041381;28;62066;-79
2022/11/23 07:11:08;;;;;;;;;5.75;3.00;;;;;;;;5041608;28;61696;-80
2022/11/23 07:13:33;;;;;;;;;4.50;4.50;;;;;;;;5041856;28;62191;-79
2022/11/23 07:15:59;;;;;;;;;5.00;2.50;;;;;;;;5041805;28;61734;-79
2022/11/23 07:18:25;;;;;;;;;3.25;3.25;;;;;;;;5038899;28;63652;-77
2022/11/23 07:20:50;;;;;;;;;7.00;3.25;;;;;;;;5041708;28;61892;-79
2022/11/23 07:23:15;;;;;;;;;6.75;4.00;;;;;;;;5041945;28;61882;-79
2022/11/23 07:25:41;;;;;;;;;7.00;3.00;;;;;;;;5059033;28;61782;-80
2022/11/23 07:28:06;;;;;;;;;5.00;2.75;;;;;;;;5061558;28;62664;-79
2022/11/23 07:30:32;;;;;;;;;7.50;3.50;;;;;;;;5061314;28;62004;-80
2022/11/23 07:33:01;;;;;;;;;5.50;3.00;;;;;;;;5060807;28;61850;-79
2022/11/23 07:35:27;;;;;;;;;8.25;4.00;;;;;;;;5060396;28;62071;-79
2022/11/23 07:37:53;;;;;;;;;9.00;2.00;;;;;;;;5059833;28;62094;-78
2022/11/23 07:40:18;;;;;;;;;2.75;2.75;;;;;;;;5059960;28;62105;-80
2022/11/23 07:42:44;;;;;;;;;5.25;3.75;;;;;;;;5060603;28;62422;-79
2022/11/23 07:45:09;;;;;;;;;4.25;3.00;;;;;;;;5061153;28;61912;-79
2022/11/23 07:47:35;;;;;;;;;5.25;3.00;;;;;;;;5059499;28;61951;-80
2022/11/23 07:50:00;;;;;;;;;4.50;2.50;;;;;;;;5062529;28;62147;-79
2022/11/23 07:52:25;;;;;;;;;4.00;4.00;;;;;;;;5064781;28;61714;-79
2022/11/23 07:54:51;;;;;;;;;4.00;3.00;;;;;;;;5064425;28;61905;-79
2022/11/23 07:57:16;;;;;;;;;5.50;3.00;;;;;;;;5064408;28;61843;-79
2022/11/23 07:59:41;;;;;;;;;5.25;2.00;;;;;;;;5063639;28;62099;-79
2022/11/23 08:02:09;;;;;;;;;2.75;2.75;;;;;;;;5064170;28;61945;-79
2022/11/23 08:04:34;;;;;;;;;5.00;3.00;;;;;;;;5064951;28;61925;-79
2022/11/23 08:07:01;;;;;;;;;11.50;10.50;;;;;;;;5064246;28;62183;-79
2022/11/23 08:09:26;;;;;;;;;3.00;2.00;;;;;;;;5064845;28;61757;-79
2022/11/23 08:11:51;;;;;;;;;4.25;2.75;;;;;;;;5064045;28;61958;-79
2022/11/23 08:14:17;;;;;;;;;3.00;3.00;;;;;;;;5064342;28;61752;-79
2022/11/23 08:16:42;;;;;;;;;4.00;3.00;;;;;;;;5063269;28;62940;-79
2022/11/23 08:19:07;;;;;;;;;2.00;2.00;;;;;;;;5064566;28;61802;-80
2022/11/23 08:21:33;;;;;;;;;2.00;2.00;;;;;;;;5064491;28;61822;-79
2022/11/23 08:23:58;;;;;;;;;3.00;1.75;;;;;;;;5064499;28;61765;-79
2022/11/23 08:26:23;;;;;;;;;4.00;2.00;;;;;;;;5064028;28;61914;-79
2022/11/23 08:28:48;;;;;;;;;2.50;2.00;;;;;;;;5064308;28;62082;-80
2022/11/23 08:31:14;;;;;;;;;3.00;3.00;;;;;;;;5064349;28;61915;-79
2022/11/23 08:33:40;;;;;;;;;3.00;3.00;;;;;;;;5064298;28;61876;-79
2022/11/23 08:36:06;;;;;;;;;4.75;2.75;;;;;;;;5063782;28;62842;-79
2022/11/23 08:38:31;;;;;;;;;1.00;1.00;;;;;;;;5064361;28;61827;-79
2022/11/23 08:40:58;;;;;;;;;5.25;3.00;;;;;;;;5064156;28;61940;-80
2022/11/23 08:43:23;;;;;;;;;3.00;2.00;;;;;;;;5063731;28;61994;-79
2022/11/23 08:45:48;;;;;;;;;3.75;2.75;;;;;;;;5063682;28;62036;-84
2022/11/23 08:48:14;;;;;;;;;4.75;3.00;;;;;;;;5064123;28;61917;-81
2022/11/23 08:50:39;;;;;;;;;6.75;4.00;;;;;;;;5063948;28;62041;-79
2022/11/23 08:53:04;;;;;;;;;3.00;1.75;;;;;;;;5063819;28;61979;-79
2022/11/23 08:55:30;;;;;;;;;7.00;3.50;;;;;;;;5063333;28;62018;-79
2022/11/23 08:57:56;;;;;;;;;1.50;1.25;;;;;;;;5063504;28;62181;-79
2022/11/23 09:00:22;;;;;;;;;4.75;2.00;;;;;;;;5045482;28;62133;-79
2022/11/23 09:02:47;;;;;;;;;5.00;1.00;;;;;;;;5062797;28;62334;-79
2022/11/23 09:05:12;;;;;;;;;2.00;2.00;;;;;;;;5063156;28;62740;-79
2022/11/23 09:07:38;;;;;;;;;2.75;2.00;;;;;;;;5063567;28;62087;-79
2022/11/23 09:10:03;;;;;;;;;2.00;2.00;;;;;;;;5063137;28;61857;-79
2022/11/23 09:12:28;;;;;;;;;2.25;1.00;;;;;;;;5063238;28;61874;-79
2022/11/23 09:14:54;;;;;;;;;1.25;1.25;;;;;;;;5061796;28;61973;-79
2022/11/23 09:17:19;;;;;;;;;1.75;1.75;;;;;;;;5063016;28;61909;-83
2022/11/23 09:19:44;;;;;;;;;1.00;1.00;;;;;;;;5063311;28;61884;-84
2022/11/23 09:22:09;;;;;;;;;1.25;1.25;;;;;;;;5063446;28;62226;-79
2022/11/23 09:24:35;;;;;;;;;1.75;1.75;;;;;;;;5063316;28;61923;-80
2022/11/23 09:27:00;;;;;;;;;1.75;1.75;;;;;;;;5063446;28;61833;-80
2022/11/23 09:29:26;;;;;;;;;1.50;1.00;;;;;;;;5064116;28;62007;-81
2022/11/23 09:31:51;;;;;;;;;1.75;1.75;;;;;;;;5063694;28;61780;-80
2022/11/23 09:34:17;;;;;;;;;2.25;1.25;;;;;;;;5062958;28;61799;-80
2022/11/23 09:36:42;;;;;;;;;2.50;2.50;;;;;;;;5063869;28;62088;-80
2022/11/23 09:39:07;;;;;;;;;3.00;2.25;;;;;;;;5063665;28;61927;-80
2022/11/23 09:41:33;;;;;;;;;1.50;1.50;;;;;;;;5063630;28;61681;-80
2022/11/23 09:43:58;;;;;;;;;4.00;2.50;;;;;;;;5063221;28;61872;-80
2022/11/23 09:46:36;;;;;;;;;2.75;2.00;;;;;;;;5062469;28;61716;-80
2022/11/23 09:49:08;;;;;;;;;2.00;2.00;;;;;;;;5062881;28;61969;-81
2022/11/23 09:51:35;;;;;;;;;5.25;2.75;;;;;;;;5063816;28;61726;-83
2022/11/23 09:54:13;;;;;;;;;2.75;2.00;;;;;;;;5063156;28;61840;-82
2022/11/23 09:56:40;;;;;;;;;2.75;2.00;;;;;;;;5061477;28;61856;-80
2022/11/23 09:59:15;;;;;;;;;1.50;1.50;;;;;;;;5062713;28;61777;-80
2022/11/23 10:01:40;;;;;;;;;3.25;2.00;;;;;;;;5063362;28;61708;-80
2022/11/23 10:04:06;;;;;;;;;3.00;2.00;;;;;;;;5062781;28;61675;-80
2022/11/23 10:06:36;;;;;;;;;2.00;2.00;;;;;;;;5063353;28;61869;-79
2022/11/23 10:09:10;;;;;;;;;3.50;2.00;;;;;;;;5063418;28;62098;-80
2022/11/23 10:11:54;;;;;;;;;1.00;1.00;;;;;;;;5045418;28;61857;-80
2022/11/23 10:14:32;;;;;;;;;2.75;2.00;;;;;;;;5062358;28;63006;-80
2022/11/23 10:17:06;;;;;;;;;5.00;3.50;;;;;;;;5062508;28;61953;-80
2022/11/23 10:19:52;;;;;;;;;4.00;3.00;;;;;;;;5063094;28;61789;-80
2022/11/23 10:22:23;;;;;;;;;3.75;2.00;;;;;;;;5063300;28;61734;-80
2022/11/23 10:24:50;;;;;;;;;3.75;3.00;;;;;;;;5062288;28;61719;-80
2022/11/23 10:27:16;;;;;;;;;2.00;2.00;;;;;;;;5062813;28;61844;-80
2022/11/23 10:29:42;;;;;;;;;3.00;2.75;;;;;;;;5045136;28;61953;-80
2022/11/23 10:32:28;;;;;;;;;2.50;1.00;;;;;;;;5062974;28;61858;-83
2022/11/23 10:34:59;;;;;;;;;3.50;3.00;;;;;;;;5047839;28;61975;-85
2022/11/23 10:37:25;;;;;;;;;1.25;1.00;;;;;;;;5062798;28;61859;-80
2022/11/23 10:39:50;;;;;;;;;6.75;2.00;;;;;;;;5062913;28;61931;-80
2022/11/23 10:42:21;;;;;;;;;6.50;5.25;;;;;;;;5063044;28;62210;-80
2022/11/23 10:44:48;;;;;;;;;4.00;4.00;;;;;;;;5062311;28;62111;-80
2022/11/23 10:47:32;;;;;;;;;3.50;1.00;;;;;;;;5062205;28;61971;-80
2022/11/23 10:49:57;;;;;;;;;3.00;2.00;;;;;;;;5062498;28;61938;-80
2022/11/23 10:52:30;;;;;;;;;1.50;0.00;;;;;;;;5044565;28;61760;-80
2022/11/23 10:54:57;;;;;;;;;1.00;1.00;;;;;;;;5062051;28;62687;-80
2022/11/23 10:57:32;;;;;;;;;1.00;1.00;;;;;;;;5062630;28;61875;-80
2022/11/23 10:59:58;;;;;;;;;1.00;1.00;;;;;;;;5062430;28;62146;-80
2022/11/23 11:02:23;;;;;;;;;2.00;1.00;;;;;;;;5062219;28;62151;-80
2022/11/23 11:04:49;;;;;;;;;0.25;0.25;;;;;;;;5061270;28;61714;-80
2022/11/23 11:07:23;;;;;;;;;2.00;1.00;;;;;;;;5061748;28;62517;-80
2022/11/23 11:09:53;;;;;;;;;1.00;1.00;;;;;;;;5062376;28;61840;-80
2022/11/23 11:12:18;;;;;;;;;1.00;1.00;;;;;;;;5062418;28;61761;-80
2022/11/23 11:14:57;;;;;;;;;3.00;1.00;;;;;;;;5061459;28;61985;-80
2022/11/23 11:17:27;;;;;;;;;6.00;0.50;;;;;;;;5060951;28;61800;-82
2022/11/23 11:19:52;;;;;;;;;2.00;0.25;;;;;;;;5063013;28;61750;-80
2022/11/23 11:22:34;;;;;;;;;2.75;1.00;;;;;;;;5062825;28;62245;-80
2022/11/23 11:25:00;;;;;;;;;1.00;1.00;;;;;;;;5060842;28;62669;-80
2022/11/23 11:27:27;;;;;;;;;0.25;0.25;;;;;;;;5062146;28;61748;-81
2022/11/23 11:29:54;;;;;;;;;2.00;2.00;;;;;;;;5062163;28;61717;-81
2022/11/23 11:32:28;;;;;;;;;4.25;2.50;;;;;;;;5061694;28;61780;-81
2022/11/23 11:34:56;;;;;;;;;1.00;1.00;;;;;;;;5061011;28;61801;-81
2022/11/23 11:37:30;;;;;;;;;2.00;2.00;;;;;;;;5062078;28;61688;-81
2022/11/23 11:39:59;;;;;;;;;3.00;2.00;;;;;;;;5062014;28;61972;-83
2022/11/23 11:42:42;;;;;;;;;2.25;2.25;;;;;;;;5062427;28;61809;-81
2022/11/23 11:45:14;;;;;;;;;1.00;1.00;;;;;;;;5061473;28;63021;-80
2022/11/23 11:47:43;;;;;;;;;2.50;2.50;;;;;;;;5061578;28;62019;-81
2022/11/23 11:50:29;;;;;;;;;4.00;2.00;;;;;;;;5043889;28;61723;-81
2022/11/23 11:53:04;;;;;;;;;1.50;1.50;;;;;;;;5061930;28;61930;-81
2022/11/23 11:55:41;;;;;;;;;4.25;0.50;;;;;;;;5058337;28;61820;-80
2022/11/23 11:58:09;;;;;;;;;3.00;1.00;;;;;;;;5041571;28;61823;-80
2022/11/23 12:00:36;;;;;;;;;1.00;0.00;;;;;;;;5041497;28;61777;-82
2022/11/23 12:03:14;;;;;;;;;0.00;0.00;;;;;;;;5040071;28;61818;-80
2022/11/23 12:05:45;;;;;;;;;1.00;1.00;;;;;;;;5041128;28;62625;-81
2022/11/23 12:08:29;;;;;;;;;0.25;0.25;;;;;;;;5040167;28;62169;-81
2022/11/23 12:10:57;;;;;;;;;0.75;0.75;;;;;;;;5043787;28;62155;-81
2022/11/23 12:13:28;;;;;;;;;0.50;0.50;;;;;;;;5055493;28;61829;-80
2022/11/23 12:16:14;;;;;;;;;1.00;1.00;;;;;;;;5060390;28;63390;-80
2022/11/23 12:18:45;;;;;;;;;1.00;1.00;;;;;;;;5007179;28;62059;-81
2022/11/23 12:21:29;;;;;;;;;1.75;1.00;;;;;;;;5006433;28;62379;-81
2022/11/23 12:23:57;;;;;;;;;0.25;0.25;;;;;;;;5006092;28;61776;-80
2022/11/23 12:26:31;;;;;;;;;2.75;0.50;;;;;;;;5005048;28;63077;-81
2022/11/23 12:29:15;;;;;;;;;0.00;0.00;;;;;;;;5000666;28;62200;-81
2022/11/23 12:31:52;;;;;;;;;0.00;0.00;;;;;;;;4997036;28;62511;-80
2022/11/23 12:34:31;;;;;;;;;2.50;0.00;;;;;;;;5003481;28;62755;-80
2022/11/23 12:36:59;;;;;;;;;1.00;1.00;;;;;;;;5000253;28;63215;-78
2022/11/23 12:39:45;;;;;;;;;0.00;0.00;;;;;;;;5015506;28;61763;-79
2022/11/23 12:42:14;;;;;;;;;0.75;0.75;;;;;;;;5016205;28;61994;-78
2022/11/23 12:44:42;;;;;;;;;3.75;1.00;;;;;;;;5015892;28;62071;-78
2022/11/23 12:47:26;;;;;;;;;0.25;0.25;;;;;;;;4999213;28;62144;-78
2022/11/23 12:49:52;;;;;;;;;0.75;0.00;;;;;;;;4998657;28;62578;-78
2022/11/23 12:52:35;;;;;;;;;1.00;0.00;;;;;;;;5002442;28;61995;-78
2022/11/23 12:55:19;;;;;;;;;2.00;0.00;;;;;;;;5010779;28;61961;-78
2022/11/23 12:57:57;;;;;;;;;0.00;0.00;;;;;;;;5061865;28;62979;-78
2022/11/23 13:00:22;;;;;;;;;1.00;1.00;;;;;;;;5062400;28;62257;-78
2022/11/23 13:03:07;;;;;;;;;0.00;0.00;;;;;;;;5062178;28;62034;-78
2022/11/23 13:05:51;;;;;;;;;2.50;0.00;;;;;;;;5060780;28;61984;-79
2022/11/23 13:08:34;;;;;;;;;2.00;0.50;;;;;;;;5058659;28;63044;-78
2022/11/23 13:11:27;;;;;;;;;5.00;1.00;;;;;;;;5038103;28;62031;-79
2022/11/23 13:14:01;;;;;;;;;0.25;0.25;;;;;;;;5062071;28;62256;-77
2022/11/23 13:16:43;;;;;;;;;3.00;1.00;;;;;;;;5061248;28;61833;-77
2022/11/23 13:19:18;;;;;;;;;2.00;0.00;;;;;;;;5062071;28;61832;-78
2022/11/23 13:21:45;;;;;;;;;0.00;0.00;;;;;;;;5044970;28;61910;-80
2022/11/23 13:24:25;;;;;;;;;3.50;1.00;;;;;;;;5062447;28;62271;-77
2022/11/23 13:27:13;;;;;;;;;1.00;1.00;;;;;;;;5063565;28;61683;-80
2022/11/23 13:29:48;;;;;;;;;2.75;0.00;;;;;;;;4980221;28;61887;-76
2022/11/23 13:32:32;;;;;;;;;1.00;1.00;;;;;;;;4980295;28;62361;-77
2022/11/23 13:34:57;;;;;;;;;1.00;1.00;;;;;;;;4964003;28;62123;-77
2022/11/23 13:37:23;;;;;;;;;2.50;2.00;;;;;;;;4979970;28;62497;-77
2022/11/23 13:39:55;;;;;;;;;0.00;0.00;;;;;;;;4980227;28;62895;-78
2022/11/23 13:42:21;;;;;;;;;0.50;0.50;;;;;;;;4980865;28;61910;-79
2022/11/23 13:44:46;;;;;;;;;0.00;0.00;;;;;;;;4980779;28;62211;-77
2022/11/23 13:47:14;;;;;;;;;0.75;0.75;;;;;;;;4980056;28;62101;-79
2022/11/23 13:49:41;;;;;;;;;3.75;0.50;;;;;;;;4980422;28;63102;-79
2022/11/23 13:52:15;;;;;;;;;1.00;1.00;;;;;;;;4981021;28;62260;-78
2022/11/23 13:54:41;;;;;;;;;2.00;0.75;;;;;;;;4966621;28;62360;-77
2022/11/23 13:57:10;;;;;;;;;2.75;1.00;;;;;;;;4981111;28;61963;-79
2022/11/23 13:59:35;;;;;;;;;2.50;0.00;;;;;;;;4980335;28;62228;-79
2022/11/23 14:02:21;;;;;;;;;2.00;1.00;;;;;;;;4979793;28;61923;-79
2022/11/23 14:04:47;;;;;;;;;1.25;1.25;;;;;;;;4980256;28;61773;-79
2022/11/23 14:07:15;;;;;;;;;1.00;1.00;;;;;;;;5039340;28;61892;-79
2022/11/23 14:09:59;;;;;;;;;1.00;1.00;;;;;;;;5061554;28;62912;-78
2022/11/23 14:12:43;;;;;;;;;3.50;2.50;;;;;;;;5061466;28;61996;-77
2022/11/23 14:15:16;;;;;;;;;2.00;0.00;;;;;;;;5059700;28;61908;-79
2022/11/23 14:17:44;;;;;;;;;1.00;1.00;;;;;;;;5043861;28;62172;-77
2022/11/23 14:20:13;;;;;;;;;1.75;0.75;;;;;;;;5074843;28;63669;-79
2022/11/23 14:22:50;;;;;;;;;2.50;1.75;;;;;;;;5061759;28;61999;-78
2022/11/23 14:25:21;;;;;;;;;1.00;0.00;;;;;;;;5062024;28;62066;-78
2022/11/23 14:27:57;;;;;;;;;2.00;1.00;;;;;;;;5044769;28;62193;-78
2022/11/23 14:30:23;;;;;;;;;0.75;0.75;;;;;;;;5043620;28;62857;-78
2022/11/23 14:32:58;;;;;;;;;1.50;0.25;;;;;;;;5061809;28;62197;-78
2022/11/23 14:35:32;;;;;;;;;1.50;1.50;;;;;;;;5061938;28;61873;-78
2022/11/23 14:38:02;;;;;;;;;3.50;0.00;;;;;;;;5062509;28;62113;-79
2022/11/23 14:40:27;;;;;;;;;2.00;1.00;;;;;;;;5062008;28;61970;-78
2022/11/23 14:42:54;;;;;;;;;2.00;1.00;;;;;;;;5061840;28;62031;-77
2022/11/23 14:45:21;;;;;;;;;1.25;1.00;;;;;;;;5062403;28;61879;-79
2022/11/23 14:47:46;;;;;;;;;0.50;0.50;;;;;;;;5061382;28;62378;-77